Time;durP1;ratioP1;P1;durP2;ratioP2;P2;SDS_P1;SDS_P2;PMS_P1;PMS_P2;Temp;Humidity;BMP_temperature;BMP_pressure;BME280_temperature;BME280_humidity;BME280_pressure;Samples;Min_cycle;Max_cycle;Signal;HPM_P1;HPM_P2
2022/01/08 00:01:11;;;;;;;7.95;3.65;;;;;;;5.25;73.84;98899.06;5092572;28;20095;-46
2022/01/08 00:03:38;;;;;;;9.70;3.70;;;;;;;5.13;73.66;98899.41;5092570;28;20027;-46
2022/01/08 00:06:03;;;;;;;7.10;2.47;;;;;;;5.03;73.84;98897.88;5092370;28;20581;-47
2022/01/08 00:08:29;;;;;;;6.65;2.83;;;;;;;4.96;74.03;98898.53;5092424;28;20028;-47
2022/01/08 00:10:55;;;;;;;8.07;2.80;;;;;;;4.91;74.36;98889.56;5092363;28;20087;-47
2022/01/08 00:13:21;;;;;;;6.75;2.03;;;;;;;4.83;74.14;98889.53;5092360;28;20157;-50
2022/01/08 00:15:47;;;;;;;9.45;2.33;;;;;;;4.76;75.02;98891.97;5090997;28;20498;-49
2022/01/08 00:18:13;;;;;;;2.83;1.45;;;;;;;4.70;75.10;98879.59;5092311;28;20039;-49
2022/01/08 00:20:39;;;;;;;5.38;2.28;;;;;;;4.65;75.05;98876.66;5092217;28;20024;-49
2022/01/08 00:23:05;;;;;;;7.47;2.72;;;;;;;4.60;75.45;98864.94;5090919;28;20020;-49
2022/01/08 00:25:31;;;;;;;13.13;2.65;;;;;;;4.55;75.42;98875.00;5092101;28;20577;-49
2022/01/08 00:27:56;;;;;;;6.60;2.38;;;;;;;4.52;76.54;98883.09;5091927;28;20040;-49
2022/01/08 00:30:22;;;;;;;5.78;2.30;;;;;;;4.55;76.74;98880.22;5092089;28;20374;-49
2022/01/08 00:32:48;;;;;;;13.40;6.05;;;;;;;4.54;77.14;98878.56;5092121;28;20394;-50
2022/01/08 00:35:13;;;;;;;8.38;2.95;;;;;;;4.58;76.99;98885.09;5092006;28;20016;-50
2022/01/08 00:37:39;;;;;;;10.00;5.10;;;;;;;4.64;77.26;98880.25;5092089;28;20039;-50
2022/01/08 00:40:09;;;;;;;8.40;4.18;;;;;;;4.69;77.44;98885.75;5090710;28;20393;-50
2022/01/08 00:42:36;;;;;;;9.38;3.63;;;;;;;4.73;77.45;98872.31;5091989;28;20099;-48
2022/01/08 00:45:04;;;;;;;7.85;4.05;;;;;;;4.83;77.90;98871.34;5091931;28;20107;-48
2022/01/08 00:47:30;;;;;;;10.77;3.60;;;;;;;4.88;77.33;98871.69;5091788;28;20424;-48
2022/01/08 00:49:56;;;;;;;5.93;3.38;;;;;;;4.75;76.65;98861.75;5090044;28;20028;-48
2022/01/08 00:52:22;;;;;;;6.00;2.58;;;;;;;4.67;76.71;98861.72;5091818;28;20016;-48
2022/01/08 00:54:48;;;;;;;11.65;4.10;;;;;;;4.58;76.98;98872.09;5090501;28;20063;-47
2022/01/08 00:57:14;;;;;;;11.13;4.18;;;;;;;4.64;77.32;98855.06;5092054;28;20115;-49
2022/01/08 00:59:39;;;;;;;9.88;4.00;;;;;;;4.66;76.70;98854.91;5091784;28;20016;-49
2022/01/08 01:02:05;;;;;;;11.52;6.55;;;;;;;4.62;76.81;98854.41;5090435;28;20046;-49
2022/01/08 01:04:31;;;;;;;7.85;3.10;;;;;;;4.57;77.10;98854.88;5091821;28;20024;-49
2022/01/08 01:06:57;;;;;;;585.80;393.63;;;;;;;4.53;77.63;98848.38;5090284;28;20371;-49
2022/01/08 01:09:23;;;;;;;45.53;27.73;;;;;;;4.60;78.21;98845.94;5091691;28;20378;-48
2022/01/08 01:11:48;;;;;;;61.55;43.47;;;;;;;4.60;77.33;98841.56;5091729;28;20498;-49
2022/01/08 01:14:14;;;;;;;142.02;92.88;;;;;;;4.66;78.80;98836.72;5091598;28;20510;-49
2022/01/08 01:16:40;;;;;;;31.30;21.13;;;;;;;4.80;78.42;98828.28;5090312;28;20028;-49
2022/01/08 01:19:06;;;;;;;18.48;11.25;;;;;;;4.82;78.10;98818.53;5091663;28;20028;-49
2022/01/08 01:21:31;;;;;;;6.30;3.10;;;;;;;4.99;78.68;98835.81;5091574;28;20524;-50
2022/01/08 01:23:58;;;;;;;14.82;9.40;;;;;;;5.19;79.05;98822.47;5091568;28;20028;-49
2022/01/08 01:26:27;;;;;;;10.07;3.40;;;;;;;5.24;78.34;98820.22;5091249;28;20065;-49
2022/01/08 01:29:35;;;;;;;9.13;3.88;;;;;;;5.14;77.72;98830.75;5091592;28;20023;-49
2022/01/08 01:48:05;;;;;;;9.95;4.95;;;;;;;5.49;78.00;98823.59;5068971;28;20595;-49
2022/01/08 01:50:31;;;;;;;7.97;4.75;;;;;;;5.53;77.33;98835.34;5068873;28;20033;-48
2022/01/08 01:52:56;;;;;;;19.05;13.43;;;;;;;5.69;77.71;98859.72;5068904;28;20027;-48
2022/01/08 01:55:23;;;;;;;26.08;21.23;;;;;;;5.85;77.57;98856.28;5068814;28;20036;-49
2022/01/08 01:57:49;;;;;;;18.58;14.68;;;;;;;5.69;75.55;98844.91;5068838;28;20036;-48
2022/01/08 02:00:15;;;;;;;10.93;7.82;;;;;;;5.47;76.19;98832.56;5068812;28;20108;-48
2022/01/08 02:02:40;;;;;;;5.82;2.50;;;;;;;5.27;76.03;98837.28;5071615;28;20036;-49
2022/01/08 02:05:08;;;;;;;4.75;2.03;;;;;;;5.12;76.05;98850.13;5072346;28;20101;-49
2022/01/08 02:07:33;;;;;;;3.17;2.28;;;;;;;5.01;76.86;98851.25;5055417;28;20029;-49
2022/01/08 02:09:59;;;;;;;5.53;2.78;;;;;;;5.08;77.97;98847.03;5072324;28;20062;-49
2022/01/08 02:12:25;;;;;;;15.93;8.18;;;;;;;5.29;78.59;98859.56;5072205;28;20028;-49
2022/01/08 02:14:51;;;;;;;6.63;3.72;;;;;;;5.44;78.74;98848.50;5072211;28;20031;-49
2022/01/08 02:17:17;;;;;;;18.60;15.23;;;;;;;5.52;76.64;98864.13;5090441;28;20576;-49
2022/01/08 02:19:43;;;;;;;5.30;2.28;;;;;;;5.48;76.87;98858.44;5094600;28;20030;-49
2022/01/08 02:22:15;;;;;;;8.63;4.25;;;;;;;5.48;77.70;98845.41;5093151;28;20032;-50
2022/01/08 02:24:45;;;;;;;4.90;2.40;;;;;;;5.62;77.78;98854.34;5094583;28;20024;-49
2022/01/08 02:27:11;;;;;;;4.30;1.48;;;;;;;5.61;77.23;98855.31;5092749;28;20052;-49
2022/01/08 02:29:37;;;;;;;13.63;6.05;;;;;;;5.53;77.60;98856.16;5094440;28;20061;-49
2022/01/08 02:32:12;;;;;;;5.68;2.70;;;;;;;5.54;78.48;98851.75;5093021;28;20035;-49
2022/01/08 02:34:40;;;;;;;5.97;2.58;;;;;;;5.74;78.21;98849.63;5094351;28;20035;-49
2022/01/08 02:37:07;;;;;;;5.72;1.90;;;;;;;5.93;77.59;98838.03;5094197;28;20055;-49
2022/01/08 02:39:41;;;;;;;7.63;4.15;;;;;;;6.11;78.82;98836.03;5094179;28;20545;-48
2022/01/08 02:42:11;;;;;;;6.55;3.25;;;;;;;6.22;77.26;98844.47;5094134;28;20489;-49
2022/01/08 02:44:38;;;;;;;4.78;2.10;;;;;;;6.23;77.01;98835.69;5094064;28;20024;-49
2022/01/08 02:47:03;;;;;;;5.85;3.17;;;;;;;6.16;76.98;98823.34;5093908;28;20034;-49
2022/01/08 02:49:33;;;;;;;7.47;2.28;;;;;;;5.97;75.79;98816.69;5093995;28;20016;-48
2022/01/08 02:52:00;;;;;;;6.68;4.45;;;;;;;5.80;76.64;98828.94;5093990;28;20111;-49
2022/01/08 02:54:26;;;;;;;7.38;2.60;;;;;;;5.94;78.02;98839.66;5093844;28;20020;-50
2022/01/08 02:56:51;;;;;;;6.03;2.38;;;;;;;6.04;77.98;98842.91;5093750;28;20035;-50
2022/01/08 02:59:18;;;;;;;6.47;4.05;;;;;;;6.14;78.40;98834.91;5093823;28;20016;-50
2022/01/08 03:01:44;;;;;;;11.43;3.45;;;;;;;6.23;78.95;98835.69;5092408;28;20020;-51
2022/01/08 03:04:10;;;;;;;9.27;3.13;;;;;;;6.33;78.67;98849.34;5092620;28;20108;-51
2022/01/08 03:06:36;;;;;;;4.78;3.42;;;;;;;6.31;77.88;98848.69;5092291;28;20043;-50
2022/01/08 03:09:02;;;;;;;3.92;2.65;;;;;;;6.13;77.20;98844.50;5093598;28;20020;-50
2022/01/08 03:11:28;;;;;;;7.60;2.40;;;;;;;6.17;78.36;98847.59;5093472;28;20031;-50
2022/01/08 03:13:54;;;;;;;4.32;1.92;;;;;;;6.15;78.27;98841.75;5093208;28;20020;-50
2022/01/08 03:16:20;;;;;;;6.03;2.97;;;;;;;6.10;77.63;98841.44;5093400;28;20401;-50
2022/01/08 03:18:47;;;;;;;7.65;2.33;;;;;;;6.09;77.49;98840.63;5093667;28;20453;-50
2022/01/08 03:21:17;;;;;;;6.00;1.73;;;;;;;6.06;77.91;98840.16;5093334;28;20028;-50
2022/01/08 03:23:50;;;;;;;6.43;2.42;;;;;;;6.15;77.76;98837.34;5093343;28;20382;-50
2022/01/08 03:26:17;;;;;;;4.72;1.63;;;;;;;6.22;77.86;98839.25;5092998;28;20054;-50
2022/01/08 03:28:44;;;;;;;4.93;2.47;;;;;;;6.41;78.78;98833.66;5093237;28;20408;-50
2022/01/08 03:31:11;;;;;;;11.45;5.03;;;;;;;6.63;78.11;98826.06;5093180;28;20016;-51
2022/01/08 03:33:37;;;;;;;12.18;3.83;;;;;;;6.50;77.84;98829.22;5093394;28;20055;-50
2022/01/08 03:36:04;;;;;;;6.50;2.13;;;;;;;6.41;77.78;98828.44;5093024;28;20101;-50
2022/01/08 03:38:30;;;;;;;10.45;2.17;;;;;;;6.37;78.71;98819.34;5093042;28;20024;-49
2022/01/08 03:40:56;;;;;;;3.38;1.65;;;;;;;6.30;78.43;98811.41;5092991;28;20020;-49
2022/01/08 03:43:22;;;;;;;4.43;1.40;;;;;;;6.24;78.03;98813.84;5091886;28;20028;-50
2022/01/08 03:45:48;;;;;;;14.75;11.63;;;;;;;6.16;77.69;98809.50;5092774;28;20100;-49
2022/01/08 03:48:33;;;;;;;6.68;3.75;;;;;;;6.13;78.05;98815.84;5091553;28;20027;-50
2022/01/08 03:50:59;;;;;;;4.13;1.80;;;;;;;6.14;77.96;98817.47;5092795;28;20133;-49
2022/01/08 03:53:26;;;;;;;4.32;1.60;;;;;;;6.18;77.56;98812.75;5092802;28;20110;-49
2022/01/08 03:55:53;;;;;;;8.25;2.78;;;;;;;6.24;78.10;98816.44;5091387;28;20060;-50
2022/01/08 03:58:19;;;;;;;14.05;9.68;;;;;;;6.35;78.39;98816.09;5092594;28;20378;-49
2022/01/08 04:00:46;;;;;;;5.40;2.15;;;;;;;6.54;78.03;98818.28;5092873;28;20077;-50
2022/01/08 04:03:12;;;;;;;8.18;2.70;;;;;;;6.67;78.42;98817.72;5092584;28;20183;-50
2022/01/08 04:05:37;;;;;;;8.48;3.40;;;;;;;6.73;77.91;98784.94;5092430;28;20524;-50
2022/01/08 04:08:03;;;;;;;14.30;6.03;;;;;;;6.64;78.02;98825.06;5092477;28;20016;-49
2022/01/08 04:10:29;;;;;;;8.32;5.82;;;;;;;6.52;77.14;98824.63;5092458;28;20016;-50
2022/01/08 04:12:58;;;;;;;7.30;6.13;;;;;;;6.06;75.45;98861.81;5092356;28;20026;-49
2022/01/08 04:17:52;;;;;;;10.30;5.07;;;;;;;5.04;76.31;98829.31;5092283;28;20118;-50
2022/01/08 04:20:19;;;;;;;9.70;5.95;;;;;;;4.92;77.58;98892.03;5092248;28;20024;-50
2022/01/08 04:22:48;;;;;;;11.45;6.38;;;;;;;4.70;77.91;98913.41;5092308;28;20024;-50
2022/01/08 04:25:16;;;;;;;13.60;8.18;;;;;;;4.49;78.74;98929.41;5091457;28;20020;-49
2022/01/08 04:27:42;;;;;;;10.40;8.20;;;;;;;4.36;79.63;98924.63;5091845;28;20509;-50
2022/01/08 04:30:08;;;;;;;13.07;7.10;;;;;;;4.35;80.11;98933.41;5092127;28;20024;-49
2022/01/08 04:32:34;;;;;;;18.15;7.57;;;;;;;4.53;81.01;98941.94;5092139;28;20121;-49
2022/01/08 04:35:00;;;;;;;11.95;7.32;;;;;;;4.73;81.42;98954.69;5092105;28;20032;-49
2022/01/08 04:37:26;;;;;;;13.05;6.90;;;;;;;4.76;80.78;98962.16;5092077;28;20024;-49
2022/01/08 04:39:52;;;;;;;15.20;12.07;;;;;;;4.73;80.53;98975.50;5090710;28;20032;-50
2022/01/08 04:42:17;;;;;;;87.63;22.58;;;;;;;4.70;80.83;98974.00;5091962;28;20138;-50
2022/01/08 04:44:43;;;;;;;32.75;24.92;;;;;;;4.78;81.30;98981.84;5090615;28;20028;-51
2022/01/08 04:47:09;;;;;;;11.77;8.13;;;;;;;4.67;81.18;98979.53;5091812;28;20052;-50
2022/01/08 04:49:35;;;;;;;7.90;4.22;;;;;;;4.50;80.62;98988.19;5091895;28;20028;-50
2022/01/08 04:52:01;;;;;;;10.13;4.68;;;;;;;4.40;80.87;98983.91;5092094;28;20024;-50
2022/01/08 04:54:26;;;;;;;7.28;4.38;;;;;;;4.39;80.63;98984.91;5091897;28;20489;-50
2022/01/08 04:56:53;;;;;;;15.13;5.88;;;;;;;4.40;80.96;98986.50;5092054;28;20489;-50
2022/01/08 04:59:18;;;;;;;7.00;4.30;;;;;;;4.48;80.81;98983.16;5091838;28;20035;-50
2022/01/08 05:01:44;;;;;;;6.20;3.92;;;;;;;4.49;80.87;98987.38;5090513;28;20025;-50
2022/01/08 05:04:11;;;;;;;13.63;9.43;;;;;;;4.44;81.02;98978.41;5091810;28;20028;-51
2022/01/08 05:06:37;;;;;;;6.43;4.75;;;;;;;4.54;81.63;98986.91;5091674;28;20028;-50
2022/01/08 05:09:03;;;;;;;15.02;8.00;;;;;;;4.70;81.66;98991.41;5091731;28;20089;-50
2022/01/08 05:11:29;;;;;;;6.63;3.63;;;;;;;4.91;81.84;98997.03;5091705;28;20397;-50
2022/01/08 05:13:56;;;;;;;5.03;2.90;;;;;;;4.90;80.90;98994.56;5091675;28;20032;-49
2022/01/08 05:16:23;;;;;;;8.38;3.60;;;;;;;4.75;80.29;98986.56;5090345;28;20521;-50
2022/01/08 05:18:52;;;;;;;10.52;4.15;;;;;;;4.60;80.63;98994.91;5090335;28;20032;-50
2022/01/08 05:21:27;;;;;;;15.30;4.80;;;;;;;4.58;80.94;98993.44;5091631;28;20028;-51
2022/01/08 05:23:55;;;;;;;21.60;12.52;;;;;;;4.60;nan;98978.50;5091612;28;20405;-51
2022/01/08 05:26:22;;;;;;;8.60;4.13;;;;;;;4.65;81.11;98970.22;5091280;28;20409;-50
2022/01/08 05:28:48;;;;;;;11.82;4.20;;;;;;;4.68;81.99;98995.94;5091478;28;20017;-51
2022/01/08 05:31:15;;;;;;;9.40;3.75;;;;;;;4.83;81.86;99006.56;5091537;28;20024;-50
2022/01/08 05:33:41;;;;;;;39.70;26.23;;;;;;;4.94;82.31;99012.31;5091838;28;20043;-51
2022/01/08 05:36:07;;;;;;;8.15;3.90;;;;;;;5.14;82.22;98999.88;5092291;28;20485;-50
2022/01/08 05:38:33;;;;;;;7.60;2.67;;;;;;;5.29;81.94;99000.09;5095679;28;20027;-51
2022/01/08 05:40:59;;;;;;;11.27;2.70;;;;;;;5.34;81.94;98990.00;5095299;28;20538;-51
2022/01/08 05:43:24;;;;;;;9.68;4.20;;;;;;;5.26;81.16;98995.19;5093932;28;20028;-50
2022/01/08 05:45:50;;;;;;;14.73;6.55;;;;;;;5.17;81.18;98993.53;5093834;28;20020;-50
2022/01/08 05:48:16;;;;;;;3.72;2.60;;;;;;;5.21;81.69;98994.84;5095187;28;20028;-51
2022/01/08 05:50:41;;;;;;;8.68;3.40;;;;;;;5.11;nan;98995.00;5095112;28;20017;-51
2022/01/08 05:53:07;;;;;;;4.55;2.15;;;;;;;5.08;81.10;98992.69;5095099;28;20052;-51
2022/01/08 05:55:33;;;;;;;8.05;3.25;;;;;;;4.95;80.23;98995.75;5094954;28;20040;-51
2022/01/08 05:57:59;;;;;;;7.55;3.40;;;;;;;4.88;80.42;98991.31;5094935;28;20020;-51
2022/01/08 06:00:25;;;;;;;4.13;1.95;;;;;;;4.74;80.43;98997.91;5093663;28;20408;-51
2022/01/08 06:02:50;;;;;;;7.85;2.63;;;;;;;4.65;80.85;98993.63;5094840;28;20069;-51
2022/01/08 06:05:16;;;;;;;8.90;3.63;;;;;;;4.71;81.36;99006.00;5094851;28;20394;-51
2022/01/08 06:07:42;;;;;;;8.45;3.15;;;;;;;4.83;81.52;99016.97;5094755;28;20059;-50
2022/01/08 06:10:08;;;;;;;8.00;3.25;;;;;;;5.06;82.33;99006.84;5094701;28;20111;-48
2022/01/08 06:12:34;;;;;;;8.98;3.22;;;;;;;5.24;82.00;99006.75;5094708;28;20020;-48
2022/01/08 06:15:00;;;;;;;5.50;3.17;;;;;;;5.19;80.64;99000.22;5094704;28;20026;-50
2022/01/08 06:17:25;;;;;;;11.13;6.43;;;;;;;5.00;80.25;99014.28;5093294;28;20401;-49
2022/01/08 06:19:51;;;;;;;13.15;8.70;;;;;;;4.96;80.63;99001.75;5094556;28;20032;-50
2022/01/08 06:22:17;;;;;;;11.68;5.13;;;;;;;4.95;78.80;99006.16;5094554;28;20610;-50
2022/01/08 06:24:43;;;;;;;5.72;2.53;;;;;;;4.84;78.68;99010.81;5093176;28;20042;-49
2022/01/08 06:27:09;;;;;;;18.08;13.88;;;;;;;4.75;79.09;99030.75;5094128;28;20046;-49
2022/01/08 06:29:34;;;;;;;18.23;9.15;;;;;;;4.86;79.95;99037.47;5094381;28;20077;-50
2022/01/08 06:32:00;;;;;;;7.35;3.92;;;;;;;4.85;79.48;99046.22;5094293;28;20027;-50
2022/01/08 06:34:26;;;;;;;10.35;8.68;;;;;;;4.79;80.10;99055.47;5092998;28;20024;-49
2022/01/08 06:36:51;;;;;;;4.88;2.85;;;;;;;4.65;79.55;99049.06;5094188;28;20485;-48
2022/01/08 06:39:17;;;;;;;6.03;3.03;;;;;;;4.62;79.83;99054.53;5092909;28;20024;-49
2022/01/08 06:41:43;;;;;;;4.10;2.55;;;;;;;4.66;80.38;99042.88;5092800;28;20024;-48
2022/01/08 06:44:10;;;;;;;18.65;6.95;;;;;;;4.71;80.70;99035.44;5092798;28;20020;-49
2022/01/08 06:46:36;;;;;;;4.40;2.85;;;;;;;4.76;79.39;99027.19;5093405;28;20016;-49
2022/01/08 06:49:01;;;;;;;6.60;3.20;;;;;;;4.62;78.69;99032.94;5093811;28;20027;-50
2022/01/08 06:51:28;;;;;;;7.10;2.95;;;;;;;4.49;80.16;99036.78;5093985;28;20433;-49
2022/01/08 06:53:54;;;;;;;10.95;6.10;;;;;;;4.38;79.73;99055.19;5092598;28;20527;-50
2022/01/08 06:56:20;;;;;;;9.02;4.57;;;;;;;4.25;80.93;99062.59;5093876;28;20060;-49
2022/01/08 06:58:46;;;;;;;9.52;3.42;;;;;;;4.21;81.06;99072.44;5093791;28;20034;-49
2022/01/08 07:01:12;;;;;;;15.57;10.73;;;;;;;4.12;80.82;99063.75;5094002;28;20043;-49
2022/01/08 07:03:38;;;;;;;10.48;5.60;;;;;;;4.09;81.40;99071.06;5093772;28;20098;-48
2022/01/08 07:06:04;;;;;;;11.45;4.95;;;;;;;4.07;81.63;99073.78;5093585;28;20111;-48
2022/01/08 07:08:30;;;;;;;8.60;4.95;;;;;;;4.29;82.81;99085.50;5093641;28;20055;-49
2022/01/08 07:10:56;;;;;;;12.30;7.05;;;;;;;4.53;82.35;99084.06;5092325;28;20024;-50
2022/01/08 07:13:22;;;;;;;11.30;6.68;;;;;;;4.72;82.27;99083.03;5093563;28;20024;-49
2022/01/08 07:15:47;;;;;;;6.35;3.45;;;;;;;4.74;81.06;99074.13;5093485;28;20024;-49
2022/01/08 07:18:13;;;;;;;8.23;4.15;;;;;;;4.60;80.88;99078.09;5093552;28;20404;-48
2022/01/08 07:20:39;;;;;;;7.70;3.50;;;;;;;4.47;80.48;99074.28;5093443;28;20098;-50
2022/01/08 07:23:05;;;;;;;5.85;2.85;;;;;;;4.34;80.52;99072.06;5093407;28;20024;-50
2022/01/08 07:25:31;;;;;;;8.73;4.40;;;;;;;4.26;81.39;99074.59;5093318;28;20027;-50
2022/01/08 07:27:57;;;;;;;8.70;3.85;;;;;;;4.24;81.04;99079.13;5093001;28;20048;-49
2022/01/08 07:30:23;;;;;;;5.05;2.53;;;;;;;4.24;81.77;99086.91;5091932;28;20070;-49
2022/01/08 07:32:51;;;;;;;6.88;3.67;;;;;;;4.35;82.26;99071.09;5093196;28;20020;-49
2022/01/08 07:35:21;;;;;;;34.17;23.80;;;;;;;4.71;83.05;99084.84;5093138;28;20466;-49
2022/01/08 07:37:48;;;;;;;153.80;123.47;;;;;;;5.00;82.80;99076.72;5093089;28;20050;-49
2022/01/08 07:40:14;;;;;;;62.65;49.88;;;;;;;5.25;82.36;99084.66;5092968;28;20398;-50
2022/01/08 07:42:40;;;;;;;273.40;234.60;;;;;;;5.37;82.34;99099.00;5092958;28;20020;-49
2022/01/08 07:45:08;;;;;;;337.58;288.10;;;;;;;5.54;82.44;99094.66;5091593;28;20035;-49
2022/01/08 07:47:35;;;;;;;127.13;94.47;;;;;;;5.71;82.18;99099.91;5092792;28;20485;-50
2022/01/08 07:50:01;;;;;;;15.63;11.40;;;;;;;5.85;81.73;99107.13;5091571;28;20031;-49
2022/01/08 07:52:27;;;;;;;26.75;18.30;;;;;;;5.85;80.88;99101.09;5092815;28;20108;-50
2022/01/08 07:54:53;;;;;;;21.00;14.43;;;;;;;5.76;79.67;99097.66;5091457;28;20059;-50
2022/01/08 07:57:18;;;;;;;27.08;21.52;;;;;;;5.54;78.98;99112.91;5091361;28;20031;-50
2022/01/08 07:59:44;;;;;;;88.47;71.20;;;;;;;5.46;80.01;99114.66;5092588;28;20035;-49
2022/01/08 08:02:10;;;;;;;85.50;69.43;;;;;;;5.47;79.42;99108.47;5092612;28;20024;-50
2022/01/08 08:04:36;;;;;;;40.50;30.42;;;;;;;5.38;78.13;99103.22;5092555;28;20016;-50
2022/01/08 08:07:02;;;;;;;16.45;10.90;;;;;;;5.18;77.73;99104.44;5091110;28;20024;-50
2022/01/08 08:09:27;;;;;;;77.57;60.28;;;;;;;5.16;79.16;99106.38;5092532;28;20024;-50
2022/01/08 08:11:53;;;;;;;123.57;99.18;;;;;;;5.21;79.61;99104.13;5092393;28;20504;-49
2022/01/08 08:14:19;;;;;;;21.40;11.70;;;;;;;5.39;79.43;99104.03;5092396;28;20023;-50
2022/01/08 08:16:45;;;;;;;34.65;27.27;;;;;;;5.42;78.52;99110.75;5092604;28;20028;-50
2022/01/08 08:19:11;;;;;;;57.00;44.40;;;;;;;5.47;79.87;99124.88;5092308;28;20024;-49
2022/01/08 08:21:37;;;;;;;45.13;36.20;;;;;;;5.92;80.46;99125.53;5092262;28;20012;-51
2022/01/08 08:24:05;;;;;;;165.90;148.50;;;;;;;6.20;79.58;99131.31;5092506;28;20045;-50
2022/01/08 08:26:32;;;;;;;166.63;135.23;;;;;;;6.28;78.92;99143.53;5091893;28;20494;-50
2022/01/08 08:29:00;;;;;;;572.63;485.15;;;;;;;6.25;78.75;99141.25;5090852;28;20051;-51
2022/01/08 08:31:26;;;;;;;427.55;381.00;;;;;;;6.27;78.55;99134.09;5090491;28;20047;-51
2022/01/08 08:33:51;;;;;;;129.02;96.25;;;;;;;6.59;79.12;99131.50;5092104;28;20490;-50
2022/01/08 08:36:17;;;;;;;44.00;31.00;;;;;;;6.58;78.24;99123.84;5090738;28;20107;-50
2022/01/08 08:38:43;;;;;;;121.40;98.00;;;;;;;6.71;78.52;99123.34;5090717;28;20024;-49
2022/01/08 08:41:10;;;;;;;25.45;18.90;;;;;;;6.78;77.35;99112.09;5092008;28;20098;-50
2022/01/08 08:43:36;;;;;;;11.05;7.75;;;;;;;6.90;77.97;99104.75;5090672;28;20099;-51
2022/01/08 08:46:02;;;;;;;11.93;7.07;;;;;;;7.10;77.21;99106.97;5091820;28;20130;-50
2022/01/08 08:48:27;;;;;;;11.45;6.93;;;;;;;7.24;76.90;99102.84;5090642;28;20023;-50
2022/01/08 08:50:53;;;;;;;8.73;4.60;;;;;;;7.06;74.37;99103.06;5090597;28;20089;-50
2022/01/08 08:53:20;;;;;;;12.90;8.57;;;;;;;6.71;74.07;99115.53;5091904;28;20055;-49
2022/01/08 08:55:46;;;;;;;13.38;6.43;;;;;;;6.58;75.56;99124.66;5091880;28;20024;-50
2022/01/08 08:58:12;;;;;;;6.53;3.67;;;;;;;6.67;76.06;99127.25;5091855;28;20020;-51
2022/01/08 09:00:37;;;;;;;10.75;5.63;;;;;;;6.62;75.10;99129.53;5091774;28;20024;-49
2022/01/08 09:03:03;;;;;;;5.55;3.13;;;;;;;6.65;75.50;99132.63;5091858;28;20095;-50
2022/01/08 09:05:28;;;;;;;7.28;3.85;;;;;;;6.56;73.48;99131.84;5091764;28;20435;-50
2022/01/08 09:07:54;;;;;;;6.70;5.00;;;;;;;6.53;74.61;99137.38;5091712;28;20027;-49
2022/01/08 09:10:25;;;;;;;7.88;3.85;;;;;;;6.70;75.86;99137.34;5092727;28;20036;-51
2022/01/08 09:12:52;;;;;;;5.47;3.35;;;;;;;6.99;75.16;99137.66;5096244;28;20016;-50
2022/01/08 09:15:23;;;;;;;7.07;3.13;;;;;;;7.06;74.94;99126.53;5095789;28;20073;-49
2022/01/08 09:17:49;;;;;;;7.05;3.85;;;;;;;7.18;75.47;99139.09;5095910;28;20397;-49
2022/01/08 09:20:15;;;;;;;11.60;4.63;;;;;;;7.35;75.77;99147.69;5095739;28;20028;-49
2022/01/08 09:22:41;;;;;;;17.88;14.90;;;;;;;7.48;74.87;99146.34;5094330;28;20638;-51
2022/01/08 09:25:08;;;;;;;9.02;4.75;;;;;;;7.48;73.97;99139.31;5095664;28;20039;-50
2022/01/08 09:27:34;;;;;;;7.53;4.57;;;;;;;7.55;74.51;99144.69;5095264;28;20047;-50
2022/01/08 09:30:00;;;;;;;12.85;6.43;;;;;;;7.57;74.48;99140.91;5095522;28;20089;-50
2022/01/08 09:32:26;;;;;;;12.95;6.88;;;;;;;7.64;74.61;99138.44;5094172;28;20050;-50
2022/01/08 09:34:52;;;;;;;6.70;4.00;;;;;;;7.72;74.06;99134.97;5094153;28;20058;-50
2022/01/08 09:37:18;;;;;;;10.65;5.65;;;;;;;7.71;73.08;99133.38;5095350;28;20077;-50
2022/01/08 09:39:44;;;;;;;15.48;5.38;;;;;;;7.65;72.91;99134.84;5094069;28;20114;-50
2022/01/08 09:42:11;;;;;;;18.08;6.38;;;;;;;7.66;73.29;99136.47;5093994;28;20047;-51
2022/01/08 09:44:39;;;;;;;10.30;4.10;;;;;;;7.75;72.85;99137.25;5095262;28;20024;-49
2022/01/08 09:47:08;;;;;;;14.23;6.22;;;;;;;7.73;72.35;99147.06;5093779;28;20031;-50
2022/01/08 09:49:34;;;;;;;11.30;5.00;;;;;;;7.84;72.53;99148.47;5095109;28;20025;-50
2022/01/08 09:52:03;;;;;;;11.50;5.85;;;;;;;7.78;71.27;99140.31;5095144;28;20028;-50
2022/01/08 09:54:30;;;;;;;18.80;6.50;;;;;;;7.79;72.12;99135.94;5095125;28;20020;-49
2022/01/08 09:56:56;;;;;;;15.00;10.80;;;;;;;7.87;71.68;99137.66;5095014;28;20543;-50
2022/01/08 09:59:22;;;;;;;9.20;7.50;;;;;;;7.71;70.46;99146.44;5094971;28;20035;-49
2022/01/08 10:02:19;;;;;;;18.60;14.57;;;;;;;7.40;72.03;99134.97;5094896;28;20020;-50
2022/01/08 10:04:44;;;;;;;10.32;6.45;;;;;;;7.49;71.78;99134.94;5092642;28;20558;-47
2022/01/08 10:07:21;;;;;;;12.32;6.70;;;;;;;7.46;71.07;99136.06;5094750;28;20095;-48
2022/01/08 10:10:13;;;;;;;8.68;5.13;;;;;;;7.44;71.46;99132.78;5093507;28;20413;-49
2022/01/08 10:12:47;;;;;;;10.65;4.95;;;;;;;7.76;71.34;99126.63;5094760;28;20099;-50
2022/01/08 10:18:01;;;;;;;7.30;4.60;;;;;;;8.29;69.26;99120.75;5094681;28;20563;-50
2022/01/08 10:20:30;;;;;;;9.55;4.72;;;;;;;8.45;68.24;99117.22;5093261;28;20048;-50
2022/01/08 10:23:08;;;;;;;6.93;3.28;;;;;;;8.53;68.90;99111.94;5091932;28;20028;-50
2022/01/08 10:25:34;;;;;;;5.75;2.92;;;;;;;8.59;68.00;99114.66;5094400;28;20046;-49
2022/01/08 10:27:59;;;;;;;6.32;3.28;;;;;;;8.65;68.16;99105.28;5094230;28;20487;-50
2022/01/08 10:30:27;;;;;;;7.45;3.22;;;;;;;8.65;67.33;99097.44;5094413;28;20409;-50
2022/01/08 10:33:00;;;;;;;6.07;2.70;;;;;;;8.72;67.93;99098.34;5093073;28;20493;-51
2022/01/08 10:35:50;;;;;;;6.00;3.10;;;;;;;9.05;67.84;99091.97;5094362;28;20032;-50
2022/01/08 10:38:16;;;;;;;6.40;3.22;;;;;;;10.07;67.92;99089.34;5094327;28;20028;-51
2022/01/08 10:40:42;;;;;;;8.27;3.67;;;;;;;10.91;66.53;99072.09;5092906;28;20044;-50
2022/01/08 10:43:29;;;;;;;6.35;3.28;;;;;;;11.81;64.85;99062.34;5094431;28;20464;-50
2022/01/08 10:46:06;;;;;;;4.15;1.77;;;;;;;12.47;62.48;99059.00;5094056;28;20024;-48
2022/01/08 10:48:32;;;;;;;7.07;3.13;;;;;;;12.44;58.86;99061.25;5093984;28;20028;-48
2022/01/08 10:51:10;;;;;;;5.47;2.08;;;;;;;12.09;59.64;99061.41;5092681;28;20023;-48
2022/01/08 10:53:54;;;;;;;8.70;3.47;;;;;;;11.83;60.76;99062.16;5092649;28;20528;-50
2022/01/08 10:56:28;;;;;;;4.45;1.98;;;;;;;11.58;60.48;99058.25;5093925;28;20141;-51
2022/01/08 10:58:59;;;;;;;8.90;2.83;;;;;;;11.45;60.41;99054.75;5093898;28;20027;-49
2022/01/08 11:01:38;;;;;;;6.22;2.75;;;;;;;11.38;61.34;99050.28;5093761;28;20103;-48
2022/01/08 11:04:07;;;;;;;5.28;2.22;;;;;;;11.49;60.80;99037.59;5092417;28;20032;-50
2022/01/08 11:06:33;;;;;;;5.28;2.70;;;;;;;11.63;59.34;99035.81;5093531;28;20020;-51
2022/01/08 11:09:03;;;;;;;5.07;2.00;;;;;;;11.88;57.92;99026.38;5092332;28;20028;-48
2022/01/08 11:11:30;;;;;;;3.92;1.60;;;;;;;11.96;56.49;99005.16;5092240;28;20520;-49
2022/01/08 11:14:07;;;;;;;7.80;1.60;;;;;;;12.13;56.95;99010.84;5093620;28;20279;-48
2022/01/08 11:16:35;;;;;;;5.03;1.85;;;;;;;12.62;56.44;99000.09;5093542;28;20154;-51
2022/01/08 11:19:03;;;;;;;4.22;1.90;;;;;;;12.90;56.06;98999.81;5093475;28;20049;-48
2022/01/08 11:21:31;;;;;;;5.57;2.17;;;;;;;13.34;55.55;99001.69;5092026;28;20511;-49
2022/01/08 11:23:59;;;;;;;18.33;16.35;;;;;;;13.37;52.26;98995.97;5093345;28;20153;-49
2022/01/08 11:26:27;;;;;;;10.10;7.30;;;;;;;13.12;51.86;98990.59;5092966;28;20418;-48
2022/01/08 11:28:58;;;;;;;14.15;7.97;;;;;;;13.16;52.94;98989.16;5093363;28;20375;-49
2022/01/08 11:31:29;;;;;;;4.35;3.03;;;;;;;13.53;51.13;98983.34;5093268;28;20405;-49
2022/01/08 11:34:03;;;;;;;9.38;3.95;;;;;;;13.42;50.54;98976.09;5092861;28;20028;-48
2022/01/08 11:36:31;;;;;;;16.83;14.38;;;;;;;13.16;50.46;98969.91;5093190;28;20038;-49
2022/01/08 11:38:57;;;;;;;23.30;20.90;;;;;;;12.83;50.29;98967.41;5091816;28;20024;-49
2022/01/08 11:41:24;;;;;;;7.18;3.72;;;;;;;12.62;51.12;98960.59;5091664;28;20036;-48
2022/01/08 11:43:50;;;;;;;4.25;2.40;;;;;;;12.45;51.78;98958.38;5092977;28;20101;-49
2022/01/08 11:46:17;;;;;;;5.32;1.90;;;;;;;12.32;52.56;98951.31;5091518;28;20457;-48
2022/01/08 11:48:47;;;;;;;3.72;1.77;;;;;;;12.23;52.95;98957.78;5091585;28;20031;-50
2022/01/08 11:51:21;;;;;;;3.15;1.35;;;;;;;12.06;53.39;98957.41;5092836;28;20516;-49
2022/01/08 11:53:49;;;;;;;4.20;1.65;;;;;;;11.82;53.62;98952.72;5092800;28;20016;-49
2022/01/08 11:56:44;;;;;;;5.60;1.85;;;;;;;11.62;54.88;98950.88;5091368;28;20028;-49